Flight Track Log - Related Links

Times and Time Zones

All times are in BST time to prevent confusion due to time zone crossing. See the SWA407 flight status page for this flight to view local times or setup timezone preferences in your user account.

Time Position Orientation Groundspeed Altitude Reporting Facility
BST Latitude Longitude Course Direction KTS MPH feet Rate Location/Type
Tue 22:05:21 33.6500 -84.3833 73° East 172 198 2,400  Level Atlanta TRACON
Tue 22:06:15 33.6667 -84.3167 73° East 225 259 3,900 1,947 Climbing Atlanta TRACON
Tue 22:07:15 33.7167 -84.2833 29° Northeast 280 322 6,100 2,184 Climbing Atlanta TRACON
Tue 22:09:41 33.8125 -84.4364 307° West 248 285 11,400 2,330 Climbing Atlanta Center
Tue 22:10:41 33.8097 -84.5614 269° West 331 381 14,100 2,850 Climbing Atlanta Center
Tue 22:11:41 33.8114 -84.6914 271° West 364 419 17,100 2,600 Climbing Atlanta Center
Tue 22:12:41 33.8086 -84.8064 268° West 364 419 19,300 2,050 Climbing Atlanta Center
Tue 22:13:41 33.8056 -84.9264 268° West 383 441 21,200 2,200 Climbing Atlanta Center
Tue 22:14:41 33.7881 -85.0561 261° West 389 448 23,700 2,000 Climbing Atlanta Center
Tue 22:15:41 33.7722 -85.1708 261° West 395 455 25,200 1,500 Climbing Atlanta Center
Tue 22:16:41 33.7833 -85.3211 275° West 395 455 26,700 1,500 Climbing Atlanta Center
Tue 22:17:41 33.8069 -85.4614 281° West 425 489 28,200 1,650 Climbing Atlanta Center
Tue 22:18:41 33.8342 -85.6144 282° West 431 496 30,000 1,650 Climbing Atlanta Center
Tue 22:19:41 33.8700 -85.7450 288° West 426 490 31,500 1,400 Climbing Atlanta Center
Tue 22:20:41 33.9100 -85.8736 291° West 420 483 32,800 1,550 Climbing Atlanta Center
Tue 22:21:41 33.9539 -86.0072 292° West 420 483 34,600 1,600 Climbing Atlanta Center
Tue 22:22:41 33.9894 -86.1308 289° West 413 475 36,000 700 Climbing Atlanta Center
Tue 22:23:41 34.0247 -86.2569 289° West 408 470 36,000  Level Atlanta Center
Tue 22:24:41 34.0600 -86.3833 289° West 403 464 36,000  Level Atlanta Center
Tue 22:25:41 34.0972 -86.5097 290° West 403 464 36,000  Level Atlanta Center
Tue 22:26:41 34.1322 -86.6336 289° West 403 464 36,000  Level Atlanta Center
Tue 22:27:42 34.1664 -86.7600 288° West 405 466 36,000  Level Memphis Center
Tue 22:28:41 34.2036 -86.8889 289° West 405 466 36,000  Level Memphis Center
Tue 22:29:41 34.2339 -87.0083 287° West 412 474 36,000  Level Memphis Center
Tue 22:30:42 34.2708 -87.1400 289° West 405 466 36,000  Level Memphis Center
Tue 22:31:41 34.3094 -87.2694 290° West 394 453 36,000  Level Memphis Center
Tue 22:32:41 34.3419 -87.3989 287° West 394 453 36,000  Level Memphis Center
Tue 22:33:42 34.3783 -87.5286 289° West 404 465 36,000  Level Memphis Center
Tue 22:34:41 34.4144 -87.6558 289° West 404 465 36,000  Level Memphis Center
Tue 22:35:42 34.4486 -87.7856 288° West 399 459 36,000  Level Memphis Center
Tue 22:36:42 34.4825 -87.9131 288° West 399 459 36,000  Level Memphis Center
Tue 22:37:42 34.5139 -88.0281 288° West 399 459 36,000  Level Memphis Center
Tue 22:38:41 34.5456 -88.1583 286° West 399 459 36,000  Level Memphis Center
Tue 22:39:42 34.5833 -88.2911 289° West 412 474 36,000  Level Memphis Center
Tue 22:40:41 34.6167 -88.4242 287° West 412 474 36,000  Level Memphis Center
Tue 22:41:42 34.6497 -88.5444 289° West 389 448 36,000  Level Memphis Center
Tue 22:42:42 34.6828 -88.6725 287° West 389 448 36,000  Level Memphis Center
Tue 22:43:42 34.7158 -88.8008 287° West 401 461 36,000  Level Memphis Center
Tue 22:44:41 34.7508 -88.9417 287° West 394 453 36,000  Level Memphis Center
Tue 22:45:42 34.7836 -89.0700 287° West 399 459 36,000  Level Memphis Center
Tue 22:46:42 34.8183 -89.1986 288° West 399 459 36,000  Level Memphis Center
Tue 22:47:42 34.8508 -89.3247 287° West 393 452 36,000  Level Memphis Center
Tue 22:48:42 34.8831 -89.4533 287° West 398 458 36,000  Level Memphis Center
Tue 22:49:42 34.9194 -89.5822 289° West 398 458 36,000  Level Memphis Center
Tue 22:50:42 34.9514 -89.7161 286° West 403 464 36,000  Level Memphis Center
Tue 22:51:42 34.9875 -89.8553 288° West 423 487 36,000  Level Memphis Center
Tue 22:52:42 35.0150 -89.9869 284° West 418 481 36,000  Level Memphis Center
Tue 22:53:41 35.0447 -90.1186 285° West 412 474 36,000  Level Memphis Center
Tue 22:54:42 35.0783 -90.2481 288° West 407 468 36,000  Level Memphis Center
Tue 22:55:42 35.1200 -90.3800 291° West 407 468 36,000  Level Memphis Center
Tue 22:56:42 35.1617 -90.5094 292° West 407 468 36,000  Level Memphis Center
Tue 22:57:42 35.2031 -90.6367 292° West 407 468 36,000  Level Memphis Center
Tue 22:58:41 35.2444 -90.7664 291° West 407 468 36,000  Level Memphis Center
Tue 22:59:42 35.2858 -90.8939 292° West 407 468 36,000  Level Memphis Center
Tue 23:00:41 35.3247 -91.0239 290° West 407 468 36,000  Level Memphis Center
Tue 23:01:42 35.3636 -91.1489 291° West 407 468 36,000  Level Memphis Center
Tue 23:02:41 35.4044 -91.2767 291° West 407 468 36,000  Level Memphis Center
Tue 23:03:42 35.4411 -91.3994 290° West 415 478 36,000  Level Memphis Center
Tue 23:04:41 35.4836 -91.5375 291° West 409 471 36,000  Level Memphis Center
Tue 23:05:41 35.5242 -91.6683 291° West 409 471 36,000  Level Memphis Center
Tue 23:06:42 35.5603 -91.7889 290° West 409 471 36,000  Level Memphis Center
Tue 23:07:42 35.6025 -91.9172 292° West 409 471 36,000  Level Memphis Center
Tue 23:08:41 35.6406 -92.0456 290° West 409 471 36,000  Level Memphis Center
Tue 23:09:42 35.6783 -92.1767 290° West 409 471 36,000  Level Memphis Center
Tue 23:10:41 35.7181 -92.3056 291° West 409 471 36,000  Level Memphis Center
Tue 23:11:42 35.7575 -92.4394 290° West 409 471 36,000  Level Memphis Center
Tue 23:12:42 35.8117 -92.5661 298° West 409 471 36,000  Level Memphis Center
Tue 23:13:41 35.8997 -92.6658 317° Northwest 414 476 36,000  Level Memphis Center
Tue 23:14:42 35.9958 -92.7583 322° Northwest 419 482 36,000  Level Memphis Center
Tue 23:15:42 36.0919 -92.8536 321° Northwest 436 502 36,000  Level Memphis Center
Tue 23:16:42 36.1861 -92.9439 322° Northwest 436 502 36,000  Level Memphis Center
Tue 23:17:42 36.2842 -93.0344 323° Northwest 441 507 36,000  Level Memphis Center
Tue 23:18:42 36.3822 -93.1256 323° Northwest 441 507 36,000  Level Memphis Center
Tue 23:19:42 36.4694 -93.2342 315° West 441 507 36,000  Level Memphis Center
Tue 23:20:41 36.4808 -93.3689 276° West 396 456 36,000  Level Memphis Center
Tue 23:21:41 36.5064 -93.5194 282° West 396 456 36,000  Level Memphis Center
Tue 23:22:41 36.5319 -93.6547 283° West 402 463 36,000  Level Memphis Center
Tue 23:25:12 36.5839 -93.9856 281° West 406 467 36,000  Level Kansas City Center
Tue 23:26:13 36.6075 -94.1231 282° West 405 466 36,000  Level Kansas City Center
Tue 23:27:14 36.6286 -94.2617 281° West 408 470 36,000  Level Kansas City Center
Tue 23:28:16 36.6508 -94.3994 281° West 407 468 36,000  Level Kansas City Center
Tue 23:29:19 36.6786 -94.5656 282° West 408 470 36,000  Level Kansas City Center
Tue 23:30:20 36.6994 -94.7031 281° West 406 467 36,000  Level Kansas City Center
Tue 23:31:24 36.7206 -94.8417 281° West 407 468 36,000  Level Kansas City Center
Tue 23:32:24 36.7422 -94.9803 281° West 408 470 36,000  Level Kansas City Center
Tue 23:33:26 36.7636 -95.1192 281° West 409 471 36,000  Level Kansas City Center
Tue 23:34:30 36.7853 -95.2581 281° West 410 472 36,000  Level Kansas City Center
Tue 23:35:31 36.8100 -95.4269 280° West 415 478 36,000  Level Kansas City Center
Tue 23:36:32 36.8311 -95.5667 281° West 414 476 36,000  Level Kansas City Center
Tue 23:37:34 36.8525 -95.7078 281° West 416 479 36,000  Level Kansas City Center
Tue 23:38:36 36.8731 -95.8517 280° West 422 486 36,000  Level Kansas City Center
Tue 23:39:38 36.8936 -95.9950 280° West 422 486 36,000  Level Kansas City Center
Tue 23:40:43 36.9189 -96.1661 281° West 420 483 36,000  Level Kansas City Center
Tue 23:41:44 36.9389 -96.3081 280° West 417 480 36,000 290 Level Kansas City Center
Tue 23:42:47 36.9597 -96.4497 280° West 416 479 36,600 823 Climbing Kansas City Center
Tue 23:43:48 36.9797 -96.5919 280° West 416 479 37,700 694 Climbing Kansas City Center
Tue 23:44:48 37.0008 -96.7306 281° West 411 473 38,000 144 Climbing Kansas City Center
Tue 23:45:53 37.0192 -96.8650 280° West 405 466 38,000  Level Kansas City Center
Tue 23:46:53 37.0364 -97.0028 279° West 403 464 38,000  Level Kansas City Center
Tue 23:47:56 37.0594 -97.1694 280° West 405 466 38,000  Level Kansas City Center
Tue 23:48:59 37.0778 -97.3075 279° West 402 463 38,000  Level Kansas City Center
Tue 23:50:00 37.0958 -97.4431 280° West 398 458 38,000  Level Kansas City Center
Tue 23:51:01 37.1131 -97.5808 279° West 398 458 38,000  Level Kansas City Center
Tue 23:52:04 37.1311 -97.7161 280° West 395 455 38,000  Level Kansas City Center
Tue 23:53:05 37.1478 -97.8500 279° West 391 450 38,000  Level Kansas City Center
Tue 23:54:08 37.1650 -97.9853 279° West 390 449 38,000  Level Kansas City Center
Tue 23:55:10 37.1858 -98.1464 279° West 390 449 38,000  Level Kansas City Center
Tue 23:56:10 37.2033 -98.2825 279° West 392 451 38,000  Level Kansas City Center
Tue 23:57:15 37.2197 -98.4186 279° West 393 452 38,000  Level Kansas City Center
Tue 23:58:16 37.2358 -98.5553 278° West 394 453 38,000  Level Kansas City Center
Tue 23:59:16 37.2522 -98.6897 279° West 393 452 38,000  Level Kansas City Center
Wed 00:00:20 37.2694 -98.8286 279° West 396 456 38,000  Level Kansas City Center
Wed 00:01:22 37.2892 -98.9944 279° West 399 459 38,000  Level Kansas City Center
Wed 00:02:23 37.3042 -99.1181 279° West 403 464 38,000  Level Kansas City Center
Wed 00:03:27 37.3228 -99.2753 279° West 406 467 38,000  Level Kansas City Center
Wed 00:04:28 37.3389 -99.4178 278° West 410 472 38,000  Level Kansas City Center
Wed 00:05:29 37.3556 -99.5728 278° West 408 470 38,000  Level Kansas City Center
Wed 00:06:32 37.3714 -99.7069 278° West 406 467 38,000  Level Kansas City Center
Wed 00:07:35 37.3886 -99.8631 278° West 405 466 38,000  Level Kansas City Center
Wed 00:08:36 37.4036 -99.9956 278° West 401 461 38,000  Level Kansas City Center
Wed 00:09:39 37.4208 -100.1506 278° West 402 463 38,000  Level Kansas City Center
Wed 00:10:40 37.4358 -100.2844 278° West 402 463 38,000  Level Kansas City Center
Wed 00:11:43 37.4522 -100.4411 278° West 404 465 38,000  Level Kansas City Center
Wed 00:12:44 37.4664 -100.5750 278° West 403 464 38,000  Level Kansas City Center
Wed 00:13:48 37.4806 -100.7100 278° West 403 464 38,000  Level Kansas City Center
Wed 00:14:47 37.4961 -100.8681 277° West 403 464 38,000  Level Kansas City Center
Wed 00:15:49 37.5083 -100.9942 277° West 402 463 38,000  Level Kansas City Center
Wed 00:16:52 37.5256 -101.1586 278° West 398 458 38,000  Level Kansas City Center
Wed 00:17:52 37.5378 -101.2903 277° West 394 453 38,000  Level Kansas City Center
Wed 00:18:55 37.5511 -101.4214 277° West 394 453 38,000  Level Kansas City Center
Wed 00:19:59 37.5667 -101.5739 277° West 393 452 38,000  Level Kansas City Center
Wed 00:21:00 37.5792 -101.7053 277° West 394 453 38,000  Level Kansas City Center
Wed 00:22:01 37.5936 -101.8564 277° West 391 450 38,000  Level Kansas City Center
Wed 00:23:05 37.6053 -101.9875 276° West 392 451 38,000  Level Kansas City Center
Wed 00:23:31 37.6125 -102.0539 278° West 393 452 38,000  Level Denver Center
Wed 00:24:33 37.6269 -102.2083 277° West 397 457 38,000  Level Denver Center
Wed 00:25:35 37.6392 -102.3403 277° West 395 455 38,000  Level Denver Center
Wed 00:26:37 37.6511 -102.4953 276° West 391 450 38,000  Level Denver Center
Wed 00:27:38 37.6631 -102.6250 277° West 390 449 38,000  Level Denver Center
Wed 00:28:40 37.6733 -102.7336 277° West 390 449 38,000  Level Denver Center
Wed 00:29:42 37.6881 -102.9083 276° West 390 449 38,000  Level Denver Center
Wed 00:30:44 37.6981 -103.0358 276° West 384 442 38,000  Level Denver Center
Wed 00:31:46 37.7108 -103.1864 276° West 386 444 38,000  Level Denver Center
Wed 00:32:48 37.7214 -103.3136 276° West 381 438 38,000  Level Denver Center
Wed 00:33:50 37.7336 -103.4636 276° West 384 442 38,000  Level Denver Center
Wed 00:34:52 37.7431 -103.5919 275° West 386 444 38,000  Level Denver Center
Wed 00:35:54 37.7561 -103.7417 276° West 385 443 38,000  Level Denver Center
Wed 00:36:56 37.7656 -103.8722 275° West 390 449 38,000  Level Denver Center
Wed 00:37:58 37.7764 -104.0219 275° West 389 448 38,000  Level Denver Center
Wed 00:39:00 37.7864 -104.1517 276° West 391 450 38,000  Level Denver Center
Wed 00:40:02 37.7969 -104.3003 275° West 385 443 38,000  Level Denver Center
Wed 00:41:04 37.8058 -104.4286 275° West 385 443 38,000  Level Denver Center
Wed 00:42:06 37.8181 -104.5853 276° West 400 460 38,000  Level Denver Center
Wed 00:43:08 37.8278 -104.7244 275° West 414 476 38,000  Level Denver Center
Wed 00:44:10 37.8386 -104.8814 275° West 404 465 38,000  Level Denver Center
Wed 00:45:12 37.8472 -105.0131 275° West 395 455 38,000  Level Denver Center
Wed 00:46:14 37.8578 -105.1653 275° West 390 449 38,000  Level Denver Center
Wed 00:47:16 37.8650 -105.2947 274° West 387 445 38,000  Level Denver Center
Wed 00:48:18 37.8900 -105.4419 282° West 385 443 38,000  Level Denver Center
Wed 00:49:20 37.9078 -105.5678 280° West 382 440 38,000  Level Denver Center
Wed 00:50:22 37.9150 -105.6933 274° West 374 430 38,000  Level Denver Center
Wed 00:51:24 37.9242 -105.8397 275° West 373 429 38,000  Level Denver Center
Wed 00:52:26 37.9306 -105.9656 274° West 374 430 38,000  Level Denver Center
Wed 00:53:27 37.9392 -106.1142 274° West 378 435 38,000  Level Denver Center
Wed 00:54:29 37.9450 -106.2433 273° West 384 442 38,000  Level Denver Center
Wed 00:55:31 37.9525 -106.3947 274° West 383 441 38,000  Level Denver Center
Wed 00:56:33 37.9608 -106.5325 274° West 384 442 38,000  Level Denver Center
Wed 00:57:35 37.9675 -106.6608 274° West 380 437 38,000  Level Denver Center
Wed 00:58:37 37.9747 -106.8114 274° West 383 441 38,000  Level Denver Center
Wed 00:59:39 37.9811 -106.9394 274° West 381 438 38,000  Level Denver Center
Wed 01:00:41 37.9875 -107.0850 273° West 371 427 38,000  Level Denver Center
Wed 01:01:42 37.9944 -107.2181 274° West 369 425 38,000  Level Denver Center
Wed 01:02:44 37.9983 -107.3428 272° West 370 426 38,000  Level Denver Center
Wed 01:03:46 38.0058 -107.4900 274° West 376 433 38,000  Level Denver Center
Wed 01:04:48 38.0119 -107.6150 274° West 374 430 38,000  Level Denver Center
Wed 01:05:50 38.0172 -107.7403 273° West 373 429 38,000  Level Denver Center
Wed 01:06:51 38.0225 -107.8842 273° West 365 420 38,000  Level Denver Center
Wed 01:07:53 38.0272 -108.0058 273° West 363 418 38,000  Level Denver Center
Wed 01:08:55 38.0325 -108.1536 273° West 374 430 38,000  Level Denver Center
Wed 01:09:57 38.0369 -108.2758 273° West 368 423 38,000  Level Denver Center
Wed 01:10:58 38.0433 -108.4178 273° West 363 418 38,000  Level Denver Center
Wed 01:12:00 38.0467 -108.5400 272° West 362 417 38,000  Level Denver Center
Wed 01:13:02 38.0517 -108.6842 273° West 366 421 38,000  Level Denver Center
Wed 01:14:04 38.0561 -108.8117 273° West 373 429 38,000  Level Denver Center
Wed 01:15:05 38.0608 -108.9608 272° West 385 443 38,000  Level Denver Center
Wed 01:16:07 38.0650 -109.0878 272° West 379 436 38,000  Level Denver Center
Wed 01:17:09 38.0686 -109.2142 272° West 374 430 38,000  Level Denver Center
Wed 01:18:10 38.0725 -109.3600 272° West 371 427 38,000  Level Denver Center
Wed 01:19:12 38.0758 -109.4869 272° West 373 429 38,000  Level Denver Center
Wed 01:20:14 38.0797 -109.6319 272° West 371 427 38,000  Level Denver Center
Wed 01:21:15 38.0831 -109.7569 272° West 370 426 38,000  Level Denver Center
Wed 01:22:17 38.0867 -109.9022 272° West 371 427 38,000  Level Denver Center
Wed 01:23:19 38.0894 -110.0272 272° West 371 427 38,000  Level Denver Center
Wed 01:24:20 38.0919 -110.1536 271° West 373 429 38,000  Level Denver Center
Wed 01:25:22 38.0947 -110.3011 271° West 374 430 38,000  Level Denver Center
Wed 01:26:23 38.0967 -110.4300 271° West 378 435 38,000  Level Denver Center
Wed 01:27:37 38.1003 -110.5808 272° West 383 441 38,000  Level Denver Center
Wed 01:28:39 38.1031 -110.7331 271° West 385 443 38,000  Level Denver Center
Wed 01:29:40 38.1047 -110.8831 271° West 383 441 38,000  Level Denver Center
Wed 01:30:42 38.1117 -111.0106 274° West 387 445 38,000  Level Denver Center
Wed 01:31:43 38.1219 -111.1464 276° West 388 447 38,000  Level Denver Center
Wed 01:32:25 38.1294 -111.2567 275° West 388 447 38,000  Level Salt Lake Center
Wed 01:33:26 38.1383 -111.3928 275° West 389 448 38,000  Level Salt Lake Center
Wed 01:34:28 38.1458 -111.5294 274° West 389 448 38,000  Level Salt Lake Center
Wed 01:35:29 38.1547 -111.6678 275° West 392 451 38,000  Level Salt Lake Center
Wed 01:36:31 38.1628 -111.8061 274° West 394 453 38,000  Level Salt Lake Center
Wed 01:37:32 38.1708 -111.9464 274° West 398 458 38,000  Level Salt Lake Center
Wed 01:38:34 38.1794 -112.1139 274° West 398 458 38,000  Level Salt Lake Center
Wed 01:39:36 38.1867 -112.2528 274° West 397 457 38,000  Level Salt Lake Center
Wed 01:40:37 38.1944 -112.3906 274° West 395 455 38,000  Level Salt Lake Center
Wed 01:41:38 38.2006 -112.5283 273° West 394 453 38,000  Level Salt Lake Center
Wed 01:42:40 38.2075 -112.6653 274° West 392 451 38,000  Level Salt Lake Center
Wed 01:43:41 38.2142 -112.8039 274° West 395 455 38,000  Level Salt Lake Center
Wed 01:44:43 38.2211 -112.9392 274° West 390 449 38,000  Level Salt Lake Center
Wed 01:45:44 38.2278 -113.0997 273° West 382 440 38,000  Level Salt Lake Center
Wed 01:46:46 38.2342 -113.2333 274° West 381 438 38,000  Level Salt Lake Center
Wed 01:47:47 38.2403 -113.3669 273° West 381 438 38,000  Level Salt Lake Center
Wed 01:48:49 38.2461 -113.4992 273° West 377 434 38,000  Level Salt Lake Center
Wed 01:49:50 38.2522 -113.6336 273° West 382 440 38,000  Level Salt Lake Center
Wed 01:50:52 38.2578 -113.7672 273° West 380 437 38,000  Level Salt Lake Center
Wed 01:51:53 38.2636 -113.9006 273° West 380 437 38,000  Level Salt Lake Center
Wed 01:52:55 38.2692 -114.0600 273° West 377 434 38,000  Level Salt Lake Center
Wed 01:53:56 38.2742 -114.1933 273° West 379 436 38,000  Level Salt Lake Center
Wed 01:54:58 38.2781 -114.3267 272° West 379 436 38,000  Level Salt Lake Center
Wed 01:55:59 38.2828 -114.4644 273° West 389 448 38,000  Level Salt Lake Center
Wed 01:57:00 38.2875 -114.6031 273° West 394 453 38,000  Level Salt Lake Center
Wed 01:58:02 38.2919 -114.7436 272° West 398 458 38,000  Level Salt Lake Center
Wed 01:59:03 38.2969 -114.8828 273° West 396 456 38,000  Level Salt Lake Center
Wed 02:00:04 38.2986 -115.0217 271° West 395 455 38,000  Level Salt Lake Center
Wed 02:01:06 38.3000 -115.1911 271° West 398 458 38,000  Level Salt Lake Center
Wed 02:02:07 38.3067 -115.3311 274° West 398 458 38,000  Level Salt Lake Center
Wed 02:03:08 38.3103 -115.4561 272° West 400 460 38,000  Level Salt Lake Center
Wed 02:04:10 38.3136 -115.5972 272° West 399 459 38,000  Level Salt Lake Center
Wed 02:05:11 38.3178 -115.7686 272° West 402 463 38,000  Level Salt Lake Center
Wed 02:06:12 38.3208 -115.9117 272° West 404 465 38,000  Level Salt Lake Center
Wed 02:07:14 38.3250 -116.0544 272° West 405 466 38,000  Level Salt Lake Center
Wed 02:08:15 38.3206 -116.1969 268° West 405 466 38,000  Level Salt Lake Center
Wed 02:09:16 38.2922 -116.3356 255° West 404 465 38,000  Level Salt Lake Center
Wed 02:10:18 38.2656 -116.4717 256° West 401 461 38,000  Level Oakland Center
Wed 02:11:19 38.2381 -116.6092 256° West 401 461 38,000  Level Oakland Center
Wed 02:12:20 38.2108 -116.7478 256° West 403 464 38,000  Level Oakland Center
Wed 02:13:21 38.1853 -116.8872 257° West 404 465 38,000  Level Oakland Center
Wed 02:14:22 38.1697 -117.0297 262° West 405 466 38,000  Level Oakland Center
Wed 02:15:24 38.1489 -117.1983 261° West 405 466 38,000  Level Oakland Center
Wed 02:16:25 38.1314 -117.3400 261° West 404 465 38,000  Level Oakland Center
Wed 02:17:26 38.1158 -117.4672 261° West 405 466 38,000  Level Oakland Center
Wed 02:18:27 38.0983 -117.6100 261° West 408 470 38,000  Level Oakland Center
Wed 02:19:28 38.0797 -117.7492 260° West 403 464 38,000  Level Oakland Center
Wed 02:20:29 38.0625 -117.8908 261° West 405 466 38,000  Level Oakland Center
Wed 02:21:31 38.0444 -118.0328 261° West 407 468 38,000  Level Oakland Center
Wed 02:22:32 38.0214 -118.2056 260° West 413 475 38,000  Level Oakland Center
Wed 02:23:33 38.0017 -118.3539 260° West 424 488 38,000  Level Oakland Center
Wed 02:24:34 37.9822 -118.5022 261° West 427 491 38,000  Level Oakland Center
Wed 02:25:35 37.9617 -118.6506 260° West 427 491 38,000  Level Oakland Center
Wed 02:26:36 37.9422 -118.7989 261° West 426 490 38,000  Level Oakland Center
Wed 02:27:37 37.9222 -118.9472 260° West 427 491 38,000  Level Oakland Center
Wed 02:28:38 37.9017 -119.0947 260° West 425 489 38,000  Level Oakland Center
Wed 02:29:40 37.8817 -119.2367 260° West 430 495 38,000  Level Oakland Center
Wed 02:30:41 37.8603 -119.3853 260° West 430 495 38,000 -443 Level Oakland Center
Wed 02:31:42 37.8361 -119.5606 260° West 420 483 37,100 -934 Descending Oakland Center
Wed 02:32:43 37.8147 -119.7056 259° West 419 482 36,100 -934 Descending Oakland Center
Wed 02:33:44 37.7933 -119.8531 260° West 426 490 35,200 -934 Descending Oakland Center
Wed 02:34:45 37.7731 -119.9981 260° West 419 482 34,200 -927 Descending Oakland Center
Wed 02:35:47 37.7514 -120.1461 260° West 426 490 33,300 -1,268 Descending Oakland Center
Wed 02:36:48 37.7297 -120.2917 259° West 423 487 31,600 -2,115 Descending Oakland Center
Wed 02:37:49 37.7072 -120.4347 259° West 414 476 29,000 -2,311 Descending Oakland Center
Wed 02:38:50 37.6864 -120.5717 259° West 401 461 26,900 -2,066 Descending Oakland Center
Wed 02:39:51 37.6678 -120.6981 259° West 372 428 24,800 -2,100 Descending Oakland Center
Wed 02:40:30 37.6500 -120.7833 255° West 358 412 23,400 -2,057 Descending Northern Cal TRACON
Wed 02:41:36 37.6333 -120.9333 262° West 353 406 21,200 -1,850 Descending Northern Cal TRACON
Wed 02:42:30 37.6167 -121.0333 258° West 342 394 19,700 -1,722 Descending Northern Cal TRACON
Wed 02:43:24 37.6000 -121.1333 258° West 348 400 18,100 -1,800 Descending Northern Cal TRACON
Wed 02:44:30 37.6000 -121.2667 270° West 339 390 16,100 -1,500 Descending Northern Cal TRACON
Wed 02:45:24 37.5833 -121.3500 256° West 311 358 15,100 -1,368 Descending Northern Cal TRACON
Wed 02:46:24 37.5667 -121.4667 260° West 299 344 13,500 -1,850 Descending Northern Cal TRACON
Wed 02:47:24 37.5500 -121.5667 258° West 298 343 11,400 -1,476 Descending Northern Cal TRACON
Wed 02:48:30 37.5167 -121.6667 247° West 284 327 10,400 -857 Descending Northern Cal TRACON
Wed 02:49:30 37.5000 -121.7667 258° West 274 315 9,600 -700 Descending Northern Cal TRACON
Wed 02:50:30 37.4833 -121.8333 253° West 222 255 9,000 -737 Descending Northern Cal TRACON
Wed 02:51:24 37.4833 -121.9000 270° West 198 228 8,200 -947 Descending Northern Cal TRACON
Wed 02:52:24 37.5000 -121.9667 288° West 182 209 7,200 -1,000 Descending Northern Cal TRACON
Wed 02:53:24 37.5167 -122.0167 293° West 180 207 6,200 -1,041 Descending Northern Cal TRACON
Wed 02:54:25 37.5333 -122.0833 288° West 161 185 5,100 -1,150 Descending Northern Cal TRACON
Wed 02:55:24 37.5500 -122.1333 293° West 160 184 3,900 -1,062 Descending Northern Cal TRACON
Wed 02:56:18 37.5667 -122.1833 293° West 159 183 3,100 -906 Descending Northern Cal TRACON
Wed 02:57:10 37.5703 -122.2153 278° West 159 183 2,300 -796 Descending Oakland Center
Wed 02:58:11 37.5817 -122.2619 287° West 150 173 1,600 -787 Descending Oakland Center
Wed 02:59:12 37.5908 -122.3058 285° West 139 160 700 -689 Descending Oakland Center
Wed 03:00:13 37.6056 -122.3428 297° West 127 146 200 -492 Descending Oakland Center
Wed 03:02:00 37.6167 -122.3667 322° Northwest  Level FlightAware Approximate
Wed 03:09:00 37.6191 -122.3752 322° Northwest  Level Estimated

Login

Don't have an account? Register now (free) for customized features, flight alerts, and more!